Time;durP1;ratioP1;P1;durP2;ratioP2;P2;SDS_P1;SDS_P2;PMS_P1;PMS_P2;Temp;Humidity;BMP_temperature;BMP_pressure;BME280_temperature;BME280_humidity;BME280_pressure;Samples;Min_cycle;Max_cycle;Signal;HPM_P1;HPM_P2
2024/03/16 00:00:21;;;;;;;867.43;814.33;;;9.60;99.90;;;;;;5046693;28;20458;-65
2024/03/16 00:02:48;;;;;;;874.97;819.73;;;9.50;99.90;;;;;;5054618;28;20466;-65
2024/03/16 00:05:15;;;;;;;880.80;822.90;;;9.40;99.90;;;;;;5042766;28;21006;-65
2024/03/16 00:07:42;;;;;;;882.83;822.40;;;9.30;99.90;;;;;;5049106;28;20529;-63
2024/03/16 00:10:09;;;;;;;889.77;826.37;;;9.30;99.90;;;;;;5043623;28;20464;-65
2024/03/16 00:12:36;;;;;;;879.47;819.67;;;9.40;99.90;;;;;;5039726;28;20485;-65
2024/03/16 00:15:02;;;;;;;871.30;815.53;;;9.40;99.90;;;;;;5052529;28;20451;-65
2024/03/16 00:17:29;;;;;;;873.90;816.33;;;9.50;99.90;;;;;;5047320;28;20469;-65
2024/03/16 00:19:56;;;;;;;859.23;804.67;;;9.60;99.90;;;;;;5045146;28;20457;-65
2024/03/16 00:22:23;;;;;;;852.97;801.47;;;9.60;99.90;;;;;;5046491;28;20454;-65
2024/03/16 00:24:50;;;;;;;851.47;801.37;;;9.70;99.90;;;;;;5046244;28;20505;-66
2024/03/16 00:27:18;;;;;;;822.33;778.40;;;9.70;99.90;;;;;;5037586;28;20500;-65
2024/03/16 00:29:44;;;;;;;843.23;796.10;;;9.70;99.90;;;;;;5049819;28;20451;-65
2024/03/16 00:32:11;;;;;;;851.50;805.80;;;9.70;99.90;;;;;;5051181;28;20446;-65
2024/03/16 00:34:38;;;;;;;799.60;762.40;;;9.70;99.90;;;;;;5033713;28;20505;-65
2024/03/16 00:37:05;;;;;;;848.60;805.13;;;9.70;99.90;;;;;;5043871;28;20461;-65
2024/03/16 00:39:32;;;;;;;813.77;775.47;;;9.70;99.90;;;;;;5045628;28;20460;-65
2024/03/16 00:41:59;;;;;;;833.50;792.40;;;9.70;99.90;;;;;;5044352;28;20458;-66
2024/03/16 00:44:26;;;;;;;822.17;782.77;;;9.70;99.90;;;;;;5046661;28;20525;-66
2024/03/16 00:46:53;;;;;;;799.87;761.70;;;9.70;99.90;;;;;;5045270;28;20505;-65
2024/03/16 00:49:20;;;;;;;773.00;737.67;;;9.70;99.90;;;;;;5045460;28;20450;-66
2024/03/16 00:51:47;;;;;;;751.93;718.93;;;9.70;99.90;;;;;;5054023;28;20911;-65
2024/03/16 00:54:14;;;;;;;704.70;676.27;;;9.70;99.90;;;;;;5053679;28;20478;-65
2024/03/16 00:56:42;;;;;;;716.37;686.70;;;9.70;99.90;;;;;;5046868;28;20447;-66
2024/03/16 00:59:09;;;;;;;711.83;683.13;;;9.70;99.90;;;;;;5052650;28;20473;-66
2024/03/16 01:01:36;;;;;;;569.37;549.30;;;9.70;99.90;;;;;;5054001;28;20461;-66
2024/03/16 01:04:04;;;;;;;577.07;556.70;;;9.80;99.90;;;;;;5051797;28;20466;-65
2024/03/16 01:06:31;;;;;;;520.57;502.93;;;9.70;99.90;;;;;;5038109;28;20476;-66
2024/03/16 01:08:58;;;;;;;461.93;446.53;;;9.80;99.90;;;;;;5047625;28;20454;-66
2024/03/16 01:11:26;;;;;;;551.37;532.37;;;9.70;99.90;;;;;;5042129;28;20833;-66
2024/03/16 01:13:53;;;;;;;642.80;619.13;;;9.70;99.90;;;;;;5050154;28;20470;-66
2024/03/16 01:16:19;;;;;;;550.50;531.57;;;9.70;99.90;;;;;;5044867;28;20458;-65
2024/03/16 01:18:47;;;;;;;660.97;635.83;;;9.60;99.90;;;;;;5053714;28;20897;-66
2024/03/16 01:21:14;;;;;;;641.87;617.90;;;9.60;99.90;;;;;;5053715;28;20460;-66
2024/03/16 01:23:41;;;;;;;714.57;685.87;;;9.60;99.90;;;;;;5055216;28;20470;-66
2024/03/16 01:26:09;;;;;;;696.20;668.10;;;9.50;99.90;;;;;;5056751;28;21078;-66
2024/03/16 01:28:36;;;;;;;755.20;721.60;;;9.50;99.90;;;;;;5039537;28;20813;-66
2024/03/16 01:31:03;;;;;;;741.20;707.53;;;9.60;99.90;;;;;;5054974;28;20450;-66
2024/03/16 01:33:30;;;;;;;778.10;742.13;;;9.60;99.90;;;;;;5051990;28;20466;-65
2024/03/16 01:35:57;;;;;;;798.30;760.50;;;9.70;99.90;;;;;;5053516;28;20822;-65
2024/03/16 01:38:24;;;;;;;823.90;783.10;;;9.60;99.90;;;;;;5049792;28;20457;-66
2024/03/16 01:40:50;;;;;;;810.20;770.47;;;9.60;99.90;;;;;;5048925;28;20465;-66
2024/03/16 01:43:17;;;;;;;836.40;792.50;;;9.50;99.90;;;;;;5040706;28;20864;-66
2024/03/16 01:45:45;;;;;;;854.10;807.10;;;9.50;99.90;;;;;;5056697;28;20488;-65
2024/03/16 01:48:12;;;;;;;849.73;801.80;;;9.50;99.90;;;;;;5045777;28;20462;-65
2024/03/16 01:50:39;;;;;;;833.30;788.90;;;9.60;99.90;;;;;;5033503;28;20502;-65
2024/03/16 01:53:06;;;;;;;856.37;807.97;;;9.60;99.90;;;;;;5045157;28;20482;-66
2024/03/16 01:55:33;;;;;;;850.63;804.43;;;9.60;99.90;;;;;;5050924;28;20446;-66
2024/03/16 01:58:00;;;;;;;853.53;806.03;;;9.50;99.90;;;;;;5046631;28;20958;-65
2024/03/16 02:00:27;;;;;;;861.47;812.70;;;9.50;99.90;;;;;;5049513;28;20493;-65
2024/03/16 02:02:55;;;;;;;863.40;814.90;;;9.50;99.90;;;;;;5048095;28;20481;-66
2024/03/16 02:05:22;;;;;;;879.23;827.73;;;9.50;99.90;;;;;;5056478;28;20450;-66
2024/03/16 02:07:49;;;;;;;868.83;818.83;;;9.60;99.90;;;;;;5040104;28;20827;-66
2024/03/16 02:10:16;;;;;;;852.87;804.23;;;9.60;99.90;;;;;;5056314;28;20875;-66
2024/03/16 02:12:43;;;;;;;868.40;820.10;;;9.70;99.90;;;;;;5056162;28;20462;-65
2024/03/16 02:15:10;;;;;;;881.53;829.07;;;9.70;99.90;;;;;;5047919;28;20450;-66
2024/03/16 02:17:37;;;;;;;875.03;823.43;;;9.70;99.90;;;;;;5048287;28;20446;-66
2024/03/16 02:20:07;;;;;;;881.07;827.77;;;9.80;99.90;;;;;;5054399;28;20450;-65
2024/03/16 02:22:34;;;;;;;893.07;838.90;;;9.70;99.90;;;;;;5036536;28;20471;-66
2024/03/16 02:25:00;;;;;;;899.90;842.63;;;9.70;99.90;;;;;;5052700;28;20450;-66
2024/03/16 02:27:27;;;;;;;907.23;847.23;;;9.70;99.90;;;;;;5048887;28;20485;-66
2024/03/16 02:29:54;;;;;;;904.50;842.00;;;9.60;99.90;;;;;;5047559;28;20865;-66
2024/03/16 02:32:21;;;;;;;899.53;834.27;;;9.60;99.90;;;;;;5048536;28;20450;-66
2024/03/16 02:34:48;;;;;;;901.07;836.00;;;9.60;99.90;;;;;;5036128;28;20444;-66
2024/03/16 02:37:15;;;;;;;900.43;834.47;;;9.60;99.90;;;;;;5046694;28;20976;-66
2024/03/16 02:39:42;;;;;;;906.90;839.10;;;9.60;99.90;;;;;;5037066;28;20455;-66
2024/03/16 02:42:09;;;;;;;901.63;836.60;;;9.70;99.90;;;;;;5038386;28;20534;-66
2024/03/16 02:44:36;;;;;;;905.93;840.13;;;9.70;99.90;;;;;;5049713;28;20467;-66
2024/03/16 02:47:04;;;;;;;899.00;834.57;;;9.70;99.90;;;;;;5043253;28;20908;-66
2024/03/16 02:49:31;;;;;;;897.70;835.00;;;9.80;99.90;;;;;;5055756;28;20537;-66
2024/03/16 02:51:58;;;;;;;897.17;833.70;;;9.80;99.90;;;;;;5047416;28;20504;-66
2024/03/16 02:54:25;;;;;;;900.70;837.80;;;9.80;99.90;;;;;;5055177;28;20466;-66
2024/03/16 02:56:52;;;;;;;900.60;839.50;;;9.90;99.90;;;;;;5046904;28;20459;-63
2024/03/16 02:59:19;;;;;;;898.63;835.50;;;9.90;99.90;;;;;;5055582;28;20454;-66
2024/03/16 03:01:46;;;;;;;896.17;833.97;;;10.00;99.90;;;;;;5047948;28;21005;-66
2024/03/16 03:04:14;;;;;;;879.30;822.40;;;10.00;99.90;;;;;;5046243;28;20470;-66
2024/03/16 03:06:41;;;;;;;886.90;829.17;;;10.00;99.90;;;;;;5048355;28;20490;-66
2024/03/16 03:09:09;;;;;;;902.67;842.67;;;10.00;99.90;;;;;;5045718;28;20458;-66
2024/03/16 03:11:37;;;;;;;899.83;840.03;;;10.00;99.90;;;;;;5055696;28;20546;-66
2024/03/16 03:14:04;;;;;;;897.97;839.10;;;10.10;99.90;;;;;;5055174;28;21025;-66
2024/03/16 03:16:31;;;;;;;908.73;849.40;;;10.00;99.90;;;;;;5049577;28;20501;-66
2024/03/16 03:18:58;;;;;;;907.27;847.17;;;10.00;99.90;;;;;;5041595;28;20461;-65
2024/03/16 03:21:25;;;;;;;883.53;825.03;;;10.00;99.90;;;;;;5046797;28;20453;-65
2024/03/16 03:23:52;;;;;;;889.63;829.93;;;10.00;99.90;;;;;;5046971;28;20843;-66
2024/03/16 03:26:19;;;;;;;879.90;825.47;;;10.10;99.90;;;;;;5051327;28;20489;-66
2024/03/16 03:28:45;;;;;;;873.60;820.50;;;10.10;99.90;;;;;;5050846;28;20891;-65
2024/03/16 03:31:12;;;;;;;862.37;811.83;;;10.10;99.90;;;;;;5052767;28;20470;-66
2024/03/16 03:33:40;;;;;;;864.07;813.17;;;10.10;99.90;;;;;;5050061;28;20500;-66
2024/03/16 03:36:07;;;;;;;867.20;816.80;;;10.20;99.90;;;;;;5054741;28;20449;-65
2024/03/16 03:38:34;;;;;;;819.77;774.47;;;10.20;99.90;;;;;;5049335;28;20505;-65
2024/03/16 03:41:01;;;;;;;857.13;807.17;;;10.20;99.90;;;;;;5053414;28;20454;-66
2024/03/16 03:43:30;;;;;;;836.27;788.80;;;10.20;99.90;;;;;;5054844;28;20916;-65
2024/03/16 03:45:57;;;;;;;792.47;750.70;;;10.20;99.90;;;;;;5045902;28;20938;-65
2024/03/16 03:48:40;;;;;;;799.57;757.47;;;10.20;99.90;;;;;;5048644;28;20468;-65
2024/03/16 03:51:07;;;;;;;723.83;687.33;;;10.20;99.90;;;;;;5048465;28;21002;-66
2024/03/16 03:53:34;;;;;;;746.03;707.67;;;10.20;99.90;;;;;;5049255;28;20569;-66
2024/03/16 03:56:01;;;;;;;720.90;684.30;;;10.20;99.90;;;;;;5049928;28;20450;-66
2024/03/16 03:58:29;;;;;;;699.87;665.30;;;10.20;99.90;;;;;;5064235;28;20453;-66
2024/03/16 04:00:55;;;;;;;691.43;656.33;;;10.30;99.90;;;;;;5063289;28;20548;-66
2024/03/16 04:03:22;;;;;;;699.37;664.27;;;10.30;99.90;;;;;;5060724;28;20568;-65
2024/03/16 04:05:54;;;;;;;702.50;668.27;;;10.20;99.90;;;;;;5055011;28;20466;-66
2024/03/16 04:08:21;;;;;;;761.07;722.67;;;10.20;99.90;;;;;;5051485;28;20464;-66
2024/03/16 04:10:48;;;;;;;733.47;696.57;;;10.20;99.90;;;;;;5042887;28;20450;-65
2024/03/16 04:13:15;;;;;;;729.97;692.60;;;10.10;99.90;;;;;;5055931;28;20856;-64
2024/03/16 04:15:42;;;;;;;771.97;732.27;;;10.00;99.90;;;;;;5055930;28;20934;-65
2024/03/16 04:18:08;;;;;;;768.13;727.17;;;10.00;99.90;;;;;;5054141;28;20988;-65
2024/03/16 04:20:35;;;;;;;780.23;737.87;;;10.00;99.90;;;;;;5054206;28;20482;-66
2024/03/16 04:23:02;;;;;;;797.53;752.77;;;10.00;99.90;;;;;;5053944;28;20477;-65
2024/03/16 04:25:29;;;;;;;772.53;730.47;;;10.00;99.90;;;;;;5053871;28;20450;-65
2024/03/16 04:27:56;;;;;;;780.57;737.37;;;10.10;99.90;;;;;;5052810;28;20846;-65
2024/03/16 04:30:23;;;;;;;785.43;740.27;;;10.10;99.90;;;;;;5049505;28;20504;-66
2024/03/16 04:32:49;;;;;;;775.90;730.17;;;10.10;99.90;;;;;;5042200;28;20470;-66
2024/03/16 04:35:16;;;;;;;792.47;746.17;;;10.20;99.90;;;;;;5054180;28;20457;-66
2024/03/16 04:37:43;;;;;;;814.67;765.47;;;10.10;99.90;;;;;;5053691;28;20453;-65
2024/03/16 04:40:10;;;;;;;838.03;786.67;;;10.10;99.90;;;;;;5043117;28;20459;-65
2024/03/16 04:42:37;;;;;;;841.87;786.40;;;10.10;99.90;;;;;;5048246;28;20470;-65
2024/03/16 04:45:05;;;;;;;869.73;806.80;;;10.20;99.90;;;;;;5053968;28;20503;-65
2024/03/16 04:47:32;;;;;;;882.87;814.67;;;10.10;99.90;;;;;;5053747;28;20477;-65
2024/03/16 04:49:59;;;;;;;895.83;825.17;;;10.10;99.90;;;;;;5045646;28;20446;-65
2024/03/16 04:52:26;;;;;;;912.17;838.77;;;10.10;99.90;;;;;;5037359;28;20526;-65
2024/03/16 04:54:53;;;;;;;912.90;837.20;;;10.10;99.90;;;;;;5050395;28;20547;-64
2024/03/16 04:57:20;;;;;;;949.73;870.27;;;10.10;99.90;;;;;;5045104;28;20449;-65
2024/03/16 04:59:47;;;;;;;947.97;868.37;;;10.10;99.90;;;;;;5057366;28;20489;-65
2024/03/16 05:02:13;;;;;;;954.70;875.40;;;10.10;99.90;;;;;;5057919;28;20840;-65
2024/03/16 05:04:40;;;;;;;943.17;862.90;;;10.10;99.90;;;;;;5049592;28;20808;-65
2024/03/16 05:07:07;;;;;;;942.13;861.47;;;10.10;99.90;;;;;;5046746;28;20482;-66
2024/03/16 05:09:34;;;;;;;967.37;886.97;;;10.10;99.90;;;;;;5051667;28;20450;-65
2024/03/16 05:12:01;;;;;;;965.73;886.07;;;10.10;99.90;;;;;;5057602;28;20559;-65
2024/03/16 05:14:28;;;;;;;983.60;903.40;;;10.10;99.90;;;;;;5049281;28;20523;-65
2024/03/16 05:16:55;;;;;;;997.40;918.30;;;10.10;99.90;;;;;;5057420;28;20446;-64
2024/03/16 05:19:22;;;;;;;1010.57;931.07;;;10.10;99.90;;;;;;5057447;28;20830;-65
2024/03/16 05:21:49;;;;;;;983.27;906.17;;;10.10;99.90;;;;;;5057363;28;20454;-65
2024/03/16 05:24:16;;;;;;;983.83;904.63;;;10.10;99.90;;;;;;5053784;28;20475;-65
2024/03/16 05:26:43;;;;;;;981.43;903.67;;;10.10;99.90;;;;;;5041677;28;21002;-65
2024/03/16 05:29:10;;;;;;;961.73;885.77;;;10.10;99.90;;;;;;5055451;28;20534;-65
2024/03/16 05:31:38;;;;;;;942.80;868.77;;;10.10;99.90;;;;;;5057429;28;20968;-65
2024/03/16 05:34:04;;;;;;;942.77;869.77;;;10.10;99.90;;;;;;5048990;28;20470;-65
2024/03/16 05:36:30;;;;;;;932.43;859.17;;;10.10;99.90;;;;;;5051542;28;21012;-65
2024/03/16 05:38:57;;;;;;;954.20;882.20;;;10.10;99.90;;;;;;5045257;28;20594;-64
2024/03/16 05:41:24;;;;;;;943.97;871.40;;;10.10;99.90;;;;;;5042226;28;20846;-65
2024/03/16 05:43:53;;;;;;;939.53;867.47;;;10.10;99.90;;;;;;5050061;28;20475;-65
2024/03/16 05:46:20;;;;;;;947.50;877.17;;;10.10;99.90;;;;;;5049040;28;20537;-65
2024/03/16 05:48:47;;;;;;;953.43;882.57;;;10.00;99.90;;;;;;5048848;28;20934;-65
2024/03/16 05:51:14;;;;;;;983.77;910.33;;;10.10;99.90;;;;;;5056968;28;20454;-64
2024/03/16 05:53:41;;;;;;;996.80;921.27;;;10.10;99.90;;;;;;5056634;28;20477;-65
2024/03/16 05:56:08;;;;;;;998.07;922.33;;;10.10;99.90;;;;;;5056688;28;20455;-64
2024/03/16 05:58:35;;;;;;;1015.73;936.40;;;10.10;99.90;;;;;;5056711;28;20938;-64
2024/03/16 06:01:04;;;;;;;1028.10;948.40;;;10.10;99.90;;;;;;5046818;28;20467;-65
2024/03/16 06:03:31;;;;;;;1045.27;967.77;;;10.10;99.90;;;;;;5042113;28;20469;-65
2024/03/16 06:05:58;;;;;;;1039.10;961.03;;;10.10;99.90;;;;;;5056210;28;20451;-63
2024/03/16 06:08:25;;;;;;;913.30;847.67;;;10.10;99.90;;;;;;5040188;28;20472;-64
2024/03/16 06:10:52;;;;;;;843.93;785.40;;;9.80;99.90;;;;;;5043681;28;20454;-63
2024/03/16 06:13:19;;;;;;;797.13;747.07;;;9.60;99.90;;;;;;5048478;28;20470;-64
2024/03/16 06:15:46;;;;;;;795.70;747.33;;;9.40;99.90;;;;;;5056565;28;20534;-65
2024/03/16 06:18:14;;;;;;;806.87;754.87;;;9.20;99.90;;;;;;5055933;28;20451;-65
2024/03/16 06:20:41;;;;;;;789.27;739.53;;;9.10;99.90;;;;;;5048046;28;20450;-65
2024/03/16 06:23:08;;;;;;;742.23;699.20;;;9.00;99.90;;;;;;5053896;28;21008;-65
2024/03/16 06:25:46;;;;;;;757.40;711.10;;;8.80;99.90;;;;;;5050679;28;20454;-65
2024/03/16 06:28:16;;;;;;;701.50;662.53;;;8.70;99.90;;;;;;5054495;28;20491;-65
2024/03/16 06:30:48;;;;;;;751.23;701.33;;;8.60;99.90;;;;;;5052072;28;20489;-65
2024/03/16 06:33:26;;;;;;;773.43;722.17;;;8.60;99.90;;;;;;5045086;28;20471;-65
2024/03/16 06:35:54;;;;;;;778.17;726.97;;;8.60;99.90;;;;;;5054098;28;20460;-62
2024/03/16 06:38:21;;;;;;;779.37;727.83;;;8.60;99.90;;;;;;5040150;28;20449;-64
2024/03/16 06:40:48;;;;;;;825.03;767.83;;;8.60;99.90;;;;;;5055957;28;20457;-65
2024/03/16 06:43:15;;;;;;;836.90;774.50;;;8.60;99.90;;;;;;5044231;28;20475;-63
2024/03/16 06:45:42;;;;;;;819.67;757.83;;;8.80;99.90;;;;;;5031893;28;20446;-65
2024/03/16 06:48:10;;;;;;;791.67;734.17;;;8.80;99.90;;;;;;5054464;28;20488;-65
2024/03/16 06:50:37;;;;;;;810.27;750.10;;;8.70;99.90;;;;;;5048509;28;20970;-65
2024/03/16 06:53:06;;;;;;;798.63;740.77;;;8.80;99.90;;;;;;5045672;28;20905;-64
2024/03/16 06:55:33;;;;;;;814.67;753.07;;;8.80;99.90;;;;;;5055498;28;20454;-65
2024/03/16 06:58:00;;;;;;;812.17;750.27;;;8.70;99.90;;;;;;5045605;28;20459;-64
2024/03/16 07:00:28;;;;;;;798.80;740.53;;;8.70;99.90;;;;;;5043672;28;20469;-64
2024/03/16 07:02:55;;;;;;;815.80;754.83;;;8.80;99.90;;;;;;5052318;28;21027;-65
2024/03/16 07:05:21;;;;;;;803.90;746.43;;;8.90;99.90;;;;;;5050584;28;20447;-65
2024/03/16 07:07:47;;;;;;;818.50;759.03;;;8.80;99.90;;;;;;5050148;28;20477;-63
2024/03/16 07:10:15;;;;;;;814.07;751.77;;;8.90;99.90;;;;;;5055114;28;20461;-64
2024/03/16 07:12:42;;;;;;;821.03;759.33;;;8.90;99.90;;;;;;5054520;28;20528;-64
2024/03/16 07:15:12;;;;;;;784.27;725.90;;;9.10;99.90;;;;;;5047289;28;20446;-67
2024/03/16 07:17:39;;;;;;;778.00;721.87;;;9.00;99.90;;;;;;5048553;28;20451;-63
2024/03/16 07:20:10;;;;;;;783.90;724.70;;;8.90;99.90;;;;;;5052422;28;20486;-63
2024/03/16 07:22:37;;;;;;;775.33;717.70;;;8.90;99.90;;;;;;5055581;28;20474;-64
2024/03/16 07:25:05;;;;;;;776.00;718.60;;;9.00;99.90;;;;;;5046676;28;20452;-64
2024/03/16 07:27:32;;;;;;;762.20;706.50;;;9.00;99.90;;;;;;5054383;28;20485;-65
2024/03/16 07:29:58;;;;;;;717.07;665.80;;;9.00;99.90;;;;;;5054798;28;20446;-65
2024/03/16 07:32:25;;;;;;;752.67;699.10;;;8.90;99.90;;;;;;5054468;28;20885;-65
2024/03/16 07:34:52;;;;;;;763.27;710.40;;;8.90;99.90;;;;;;5054581;28;20452;-62
2024/03/16 07:37:19;;;;;;;777.63;722.53;;;8.90;99.90;;;;;;5050814;28;20946;-64
2024/03/16 07:39:46;;;;;;;753.37;702.70;;;9.00;99.90;;;;;;5049315;28;20454;-65
2024/03/16 07:42:13;;;;;;;772.27;722.80;;;9.00;99.90;;;;;;5054318;28;20454;-65
2024/03/16 07:44:40;;;;;;;731.97;688.03;;;9.00;99.90;;;;;;5044450;28;20446;-64
2024/03/16 07:47:07;;;;;;;738.67;698.00;;;9.10;99.90;;;;;;5053106;28;20488;-65
2024/03/16 07:49:34;;;;;;;761.50;718.23;;;9.20;99.90;;;;;;5045452;28;20450;-64
2024/03/16 07:52:02;;;;;;;746.03;705.60;;;9.30;99.90;;;;;;5052957;28;20456;-65
2024/03/16 07:54:29;;;;;;;747.13;707.83;;;9.20;99.90;;;;;;5047117;28;20890;-65
2024/03/16 07:56:58;;;;;;;734.83;696.63;;;9.20;99.90;;;;;;5053532;28;20446;-65
2024/03/16 07:59:25;;;;;;;741.10;704.10;;;9.20;99.90;;;;;;5047915;28;20955;-64
2024/03/16 08:01:52;;;;;;;713.63;679.87;;;9.10;99.90;;;;;;5049361;28;20452;-64
2024/03/16 08:04:19;;;;;;;553.13;531.97;;;9.20;99.90;;;;;;5044928;28;20876;-64
2024/03/16 08:06:46;;;;;;;383.83;371.23;;;9.30;99.90;;;;;;5052734;28;20446;-65
2024/03/16 08:09:14;;;;;;;340.07;328.50;;;9.30;99.90;;;;;;5053726;28;20486;-66
2024/03/16 08:11:42;;;;;;;386.27;373.23;;;9.40;99.90;;;;;;5045897;28;20454;-67
2024/03/16 08:14:10;;;;;;;340.70;329.53;;;9.50;99.90;;;;;;5042673;28;20471;-65
2024/03/16 08:16:37;;;;;;;68.50;65.87;;;9.50;99.90;;;;;;5047988;28;20450;-64
2024/03/16 08:19:05;;;;;;;58.90;56.53;;;9.50;99.90;;;;;;5052818;28;20457;-65
2024/03/16 08:21:32;;;;;;;54.70;52.47;;;9.50;99.90;;;;;;5035675;28;21021;-65
2024/03/16 08:24:00;;;;;;;161.10;155.07;;;9.60;99.90;;;;;;5039212;28;20477;-65
2024/03/16 08:26:28;;;;;;;179.93;173.53;;;9.70;99.90;;;;;;5036196;28;20483;-66
2024/03/16 08:28:55;;;;;;;99.40;95.73;;;9.90;99.90;;;;;;5051068;28;20485;-66
2024/03/16 08:31:22;;;;;;;30.90;29.10;;;10.10;99.90;;;;;;5054161;28;20450;-65
2024/03/16 08:33:49;;;;;;;71.00;68.17;;;10.10;99.90;;;;;;5044905;28;20470;-65
2024/03/16 08:36:16;;;;;;;17.43;16.10;;;9.90;99.90;;;;;;5050396;28;20447;-65
2024/03/16 08:38:43;;;;;;;29.63;28.13;;;9.80;99.90;;;;;;5041891;28;20448;-65
2024/03/16 08:41:10;;;;;;;35.83;34.13;;;9.60;99.90;;;;;;5047146;28;20442;-65
2024/03/16 08:43:36;;;;;;;32.37;30.67;;;9.70;99.90;;;;;;5046108;28;20476;-65
2024/03/16 08:46:06;;;;;;;30.47;28.97;;;9.60;99.90;;;;;;5043500;28;20451;-65
2024/03/16 08:48:32;;;;;;;48.27;46.17;;;9.70;99.90;;;;;;5041811;28;20471;-65
2024/03/16 08:51:00;;;;;;;51.57;49.27;;;9.80;99.90;;;;;;5050061;28;20449;-66
2024/03/16 08:53:27;;;;;;;40.87;38.97;;;9.70;99.90;;;;;;5052890;28;20899;-64
2024/03/16 08:55:56;;;;;;;35.47;33.67;;;9.70;99.90;;;;;;5044067;28;20436;-66
2024/03/16 08:58:24;;;;;;;25.60;24.30;;;9.70;99.90;;;;;;5046729;28;20500;-65
2024/03/16 09:00:51;;;;;;;10.67;9.87;;;9.70;99.90;;;;;;5053598;28;20454;-65
2024/03/16 09:03:18;;;;;;;8.53;7.73;;;9.60;99.90;;;;;;5045314;28;20549;-66
2024/03/16 09:05:45;;;;;;;14.10;13.10;;;9.60;99.90;;;;;;5040169;28;20457;-65
2024/03/16 09:08:12;;;;;;;12.53;11.37;;;9.60;99.90;;;;;;5033174;28;21104;-65
2024/03/16 09:10:39;;;;;;;12.90;12.20;;;9.60;99.90;;;;;;5048466;28;20472;-66
2024/03/16 09:13:06;;;;;;;14.40;13.70;;;9.70;99.90;;;;;;5053432;28;20470;-64
2024/03/16 09:15:33;;;;;;;9.53;8.83;;;9.80;99.90;;;;;;5045255;28;20848;-65
2024/03/16 09:18:00;;;;;;;10.53;9.73;;;9.70;99.90;;;;;;5052502;28;20824;-66
2024/03/16 09:20:27;;;;;;;18.60;17.60;;;9.70;99.90;;;;;;5039138;28;20453;-65
2024/03/16 09:22:56;;;;;;;13.10;12.20;;;9.90;99.90;;;;;;5044963;28;21015;-66
2024/03/16 09:25:23;;;;;;;7.67;7.00;;;10.10;99.90;;;;;;5046162;28;20457;-65
2024/03/16 09:27:50;;;;;;;8.27;7.53;;;10.10;99.90;;;;;;5044953;28;20455;-64
2024/03/16 09:30:18;;;;;;;10.60;9.80;;;10.20;99.90;;;;;;5033255;28;20451;-65
2024/03/16 09:32:45;;;;;;;10.50;9.57;;;10.20;99.90;;;;;;5049273;28;20477;-65
2024/03/16 09:35:12;;;;;;;9.67;8.73;;;10.10;99.90;;;;;;5042477;28;20447;-65
2024/03/16 09:37:39;;;;;;;16.37;15.40;;;9.80;99.90;;;;;;5049642;28;20537;-66
2024/03/16 09:40:09;;;;;;;74.13;70.57;;;9.30;99.90;;;;;;5041608;28;20451;-66
2024/03/16 09:42:37;;;;;;;73.17;70.47;;;9.10;99.90;;;;;;5039133;28;20520;-64
2024/03/16 09:45:06;;;;;;;65.20;62.77;;;8.80;99.90;;;;;;5052055;28;20445;-66
2024/03/16 09:47:33;;;;;;;157.27;151.50;;;8.70;99.90;;;;;;5051049;28;20457;-66
2024/03/16 09:50:01;;;;;;;259.33;249.60;;;8.50;99.90;;;;;;5056855;28;20492;-66
2024/03/16 09:52:28;;;;;;;213.63;205.87;;;8.50;99.90;;;;;;5057136;28;20503;-66
2024/03/16 09:54:57;;;;;;;176.87;170.70;;;8.70;99.90;;;;;;5056684;28;20461;-66
2024/03/16 09:57:25;;;;;;;173.83;167.73;;;8.70;99.90;;;;;;5049692;28;20832;-66
2024/03/16 09:59:52;;;;;;;153.50;148.13;;;8.80;99.90;;;;;;5057122;28;20875;-65
2024/03/16 10:02:20;;;;;;;150.33;144.73;;;8.90;99.90;;;;;;5056755;28;20454;-63
2024/03/16 10:04:47;;;;;;;139.33;134.60;;;8.80;99.90;;;;;;5056481;28;20529;-67
2024/03/16 10:07:14;;;;;;;133.10;128.30;;;9.10;99.90;;;;;;5045092;28;20449;-65
2024/03/16 10:09:53;;;;;;;131.53;126.93;;;9.30;99.90;;;;;;5033859;28;20482;-66
2024/03/16 10:12:21;;;;;;;83.80;80.67;;;9.30;99.90;;;;;;5033068;28;20876;-65
2024/03/16 10:15:02;;;;;;;37.73;36.13;;;9.30;99.90;;;;;;5037099;28;20448;-66
2024/03/16 10:17:29;;;;;;;35.07;32.93;;;9.30;99.90;;;;;;5040611;28;20459;-68
2024/03/16 10:19:57;;;;;;;30.20;28.90;;;9.30;99.90;;;;;;5034129;28;20452;-66
2024/03/16 10:22:24;;;;;;;16.37;15.47;;;9.20;99.90;;;;;;5036597;28;20497;-66
2024/03/16 10:24:51;;;;;;;5.70;5.20;;;9.10;99.90;;;;;;5035753;28;20459;-63
2024/03/16 10:27:19;;;;;;;7.60;6.83;;;9.00;99.90;;;;;;5032595;28;20530;-66
2024/03/16 10:29:46;;;;;;;4.60;3.60;;;9.00;99.90;;;;;;5035669;28;20467;-65
2024/03/16 10:32:14;;;;;;;4.63;3.43;;;9.00;99.90;;;;;;5036308;28;20450;-66
2024/03/16 10:34:41;;;;;;;5.60;4.03;;;9.00;99.90;;;;;;5052032;28;20443;-66
2024/03/16 10:37:08;;;;;;;4.87;4.23;;;9.00;99.90;;;;;;5035692;28;20447;-65
2024/03/16 10:39:35;;;;;;;4.93;3.27;;;9.10;99.90;;;;;;5052304;28;20447;-65
2024/03/16 10:42:04;;;;;;;5.67;4.60;;;9.10;99.90;;;;;;5051825;28;20450;-66
2024/03/16 10:44:31;;;;;;;3.63;2.43;;;9.30;99.90;;;;;;5052449;28;20572;-65
2024/03/16 10:46:58;;;;;;;4.17;2.60;;;9.20;99.90;;;;;;5052092;28;20446;-66
2024/03/16 10:49:25;;;;;;;3.77;2.50;;;9.30;99.90;;;;;;5036434;28;20478;-65
2024/03/16 10:51:52;;;;;;;6.50;4.37;;;9.30;99.90;;;;;;5036346;28;20440;-65
2024/03/16 10:54:19;;;;;;;4.70;4.00;;;9.60;99.90;;;;;;5027403;28;20466;-66
2024/03/16 10:56:46;;;;;;;5.47;2.63;;;9.70;99.90;;;;;;5033971;28;20443;-66
2024/03/16 10:59:41;;;;;;;6.73;2.30;;;9.90;99.90;;;;;;5035700;28;20462;-66
2024/03/16 11:02:12;;;;;;;5.07;2.30;;;10.00;99.90;;;;;;5051471;28;20518;-65
2024/03/16 11:04:51;;;;;;;4.50;3.23;;;10.10;99.90;;;;;;5035436;28;21012;-66
2024/03/16 11:07:18;;;;;;;9.17;3.50;;;10.30;99.90;;;;;;5035562;28;21012;-65
2024/03/16 11:09:45;;;;;;;4.07;2.00;;;10.30;99.90;;;;;;5035757;28;20483;-65
2024/03/16 11:12:33;;;;;;;5.43;2.03;;;10.30;99.90;;;;;;5035125;28;20469;-64
2024/03/16 11:15:32;;;;;;;5.43;1.70;;;10.20;99.90;;;;;;5035483;28;20451;-65
2024/03/16 11:18:28;;;;;;;7.00;1.87;;;10.20;99.90;;;;;;5050888;28;20442;-65
2024/03/16 11:20:55;;;;;;;3.63;1.47;;;10.20;99.90;;;;;;5051305;28;20475;-66
2024/03/16 11:23:22;;;;;;;3.40;1.30;;;10.20;99.90;;;;;;5051116;28;20459;-65
2024/03/16 11:25:49;;;;;;;4.13;1.30;;;10.20;99.90;;;;;;5035714;28;20443;-65
2024/03/16 11:28:17;;;;;;;3.80;0.90;;;10.20;99.90;;;;;;5034718;28;20934;-65
2024/03/16 11:30:44;;;;;;;6.70;1.30;;;10.10;99.90;;;;;;5052407;28;20939;-65
2024/03/16 11:33:13;;;;;;;3.90;1.13;;;10.10;99.90;;;;;;5034736;28;21017;-65
2024/03/16 11:35:41;;;;;;;3.30;0.90;;;10.20;98.50;;;;;;5050218;28;21034;-65
2024/03/16 11:38:10;;;;;;;3.50;0.90;;;10.30;99.90;;;;;;5033690;28;20454;-66
2024/03/16 11:40:37;;;;;;;4.37;0.87;;;10.20;97.70;;;;;;5034978;28;20795;-65
2024/03/16 11:43:05;;;;;;;4.53;1.60;;;10.20;99.90;;;;;;5035120;28;20471;-66
2024/03/16 11:45:33;;;;;;;4.50;1.13;;;10.10;97.70;;;;;;5050798;28;20960;-65
2024/03/16 11:48:00;;;;;;;3.40;1.10;;;10.20;99.90;;;;;;5032914;28;20456;-65
2024/03/16 11:50:27;;;;;;;4.70;1.10;;;10.00;99.90;;;;;;5034260;28;20974;-66
2024/03/16 11:52:53;;;;;;;3.40;0.90;;;10.20;99.90;;;;;;5033799;28;20470;-65
2024/03/16 11:55:22;;;;;;;6.23;1.47;;;10.20;97.70;;;;;;5030735;28;20452;-65
2024/03/16 11:57:48;;;;;;;4.57;1.13;;;10.30;97.70;;;;;;5032980;28;20448;-65
2024/03/16 12:00:17;;;;;;;3.40;1.00;;;10.40;99.90;;;;;;5033665;28;20455;-66
2024/03/16 12:02:43;;;;;;;5.00;1.53;;;10.30;96.60;;;;;;5034887;28;20494;-66
2024/03/16 12:05:10;;;;;;;3.50;1.27;;;10.40;97.80;;;;;;5034731;28;20451;-66
2024/03/16 12:07:36;;;;;;;5.23;1.43;;;10.40;97.80;;;;;;5033248;28;20439;-66
2024/03/16 12:10:04;;;;;;;4.17;1.50;;;10.30;96.70;;;;;;5033505;28;20517;-66
2024/03/16 12:12:31;;;;;;;3.80;1.10;;;10.30;97.60;;;;;;5032254;28;20448;-65
2024/03/16 12:15:09;;;;;;;3.50;1.00;;;10.30;97.70;;;;;;5035414;28;20466;-65
2024/03/16 12:17:37;;;;;;;5.10;1.13;;;10.40;99.90;;;;;;5032021;28;20452;-66
2024/03/16 12:20:05;;;;;;;4.27;1.30;;;10.30;97.70;;;;;;5032007;28;20448;-65
2024/03/16 12:22:33;;;;;;;5.90;1.80;;;10.40;97.80;;;;;;5034382;28;20808;-66
2024/03/16 12:24:59;;;;;;;3.93;1.20;;;10.30;97.70;;;;;;5034257;28;20493;-66